Time;durP1;ratioP1;P1;durP2;ratioP2;P2;SDS_P1;SDS_P2;PMS_P1;PMS_P2;Temp;Humidity;BMP_temperature;BMP_pressure;BME280_temperature;BME280_humidity;BME280_pressure;Samples;Min_cycle;Max_cycle;Signal;HPM_P1;HPM_P2
2022/04/13 09:12:02;;;;;;;8.93;3.07;;;15.50;99.90;;;;;;4934324;23;20289;-73
2022/04/13 09:14:30;;;;;;;6.40;3.33;;;15.70;99.90;;;;;;4914992;29;20206;-74
2022/04/13 09:16:57;;;;;;;7.33;3.10;;;15.70;99.90;;;;;;4913242;29;20208;-70
2022/04/13 09:19:26;;;;;;;6.90;3.10;;;15.60;99.90;;;;;;4896864;29;20249;-74
2022/04/13 09:21:53;;;;;;;8.87;3.47;;;15.60;99.90;;;;;;4896330;29;20269;-71
2022/04/13 09:24:20;;;;;;;5.20;3.07;;;15.40;99.90;;;;;;4893513;29;20203;-72
2022/04/13 09:26:47;;;;;;;13.90;4.57;;;15.60;99.90;;;;;;4895949;29;20251;-72
2022/04/13 09:29:15;;;;;;;11.10;3.67;;;15.60;99.90;;;;;;4895712;29;20648;-71
2022/04/13 09:31:42;;;;;;;5.07;2.97;;;15.80;99.90;;;;;;4896766;29;20218;-71
2022/04/13 09:34:09;;;;;;;7.90;3.13;;;15.90;99.90;;;;;;4896138;29;20583;-70
2022/04/13 09:36:37;;;;;;;8.60;3.23;;;16.00;99.90;;;;;;4895520;29;20259;-71
2022/04/13 09:39:03;;;;;;;4.90;3.37;;;16.20;99.90;;;;;;4891289;29;20241;-71
2022/04/13 09:41:34;;;;;;;6.03;3.10;;;16.00;99.90;;;;;;4892560;29;20221;-74
2022/04/13 09:44:02;;;;;;;5.57;3.40;;;16.00;99.90;;;;;;4893275;29;20203;-71
2022/04/13 09:46:31;;;;;;;9.57;3.20;;;16.10;99.90;;;;;;4896186;29;20206;-74
2022/04/13 09:49:11;;;;;;;6.13;3.57;;;16.10;99.90;;;;;;4894643;29;20274;-70
2022/04/13 09:51:38;;;;;;;8.57;3.50;;;15.80;99.90;;;;;;4895512;29;20229;-68
2022/04/13 09:54:08;;;;;;;5.13;2.93;;;15.90;99.90;;;;;;4893872;29;20587;-68
2022/04/13 09:56:36;;;;;;;4.63;2.87;;;15.90;99.90;;;;;;4895043;29;20225;-71
2022/04/13 09:59:04;;;;;;;8.17;2.97;;;16.10;99.90;;;;;;4892700;29;20598;-69
2022/04/13 10:01:34;;;;;;;7.50;3.07;;;16.10;99.90;;;;;;4895839;29;20846;-69
2022/04/13 10:04:03;;;;;;;6.97;3.33;;;16.10;99.90;;;;;;4892876;29;20736;-68
2022/04/13 10:06:30;;;;;;;6.27;3.13;;;15.90;99.90;;;;;;4894524;29;20671;-69
2022/04/13 10:09:01;;;;;;;8.87;3.83;;;15.90;99.90;;;;;;4894489;29;20233;-71
2022/04/13 10:11:28;;;;;;;7.57;3.47;;;15.90;99.90;;;;;;4894079;29;20214;-79
2022/04/13 10:13:55;;;;;;;10.47;3.67;;;16.00;99.90;;;;;;4893943;29;20221;-69
2022/04/13 10:16:22;;;;;;;6.93;3.00;;;15.90;99.90;;;;;;4895911;29;20206;-77
2022/04/13 10:18:55;;;;;;;6.37;3.27;;;15.80;99.90;;;;;;4894647;29;20234;-71
2022/04/13 10:21:43;;;;;;;7.40;3.43;;;16.00;99.90;;;;;;4895414;29;20746;-71
2022/04/13 10:24:23;;;;;;;9.73;4.10;;;16.00;99.90;;;;;;4896360;29;20304;-68
2022/04/13 10:27:03;;;;;;;8.50;3.47;;;16.00;99.90;;;;;;4892619;29;20564;-72
2022/04/13 10:29:31;;;;;;;4.97;3.00;;;16.00;99.90;;;;;;4877392;29;20211;-75
2022/04/13 10:32:06;;;;;;;5.03;3.30;;;15.90;99.90;;;;;;4877652;29;20211;-71
2022/04/13 10:34:36;;;;;;;5.50;3.37;;;15.80;99.90;;;;;;4878493;29;20559;-74
2022/04/13 10:37:03;;;;;;;6.97;3.50;;;15.80;99.90;;;;;;4892506;29;20206;-71
2022/04/13 10:39:30;;;;;;;8.50;3.57;;;15.80;99.90;;;;;;4898774;29;20234;-69
2022/04/13 10:41:57;;;;;;;9.13;3.50;;;15.70;99.90;;;;;;4898828;29;20241;-69
2022/04/13 10:44:33;;;;;;;9.53;4.20;;;15.70;99.90;;;;;;4898762;29;20285;-71
2022/04/13 10:47:03;;;;;;;8.87;3.77;;;15.70;99.90;;;;;;4899368;29;20208;-78
2022/04/13 10:49:39;;;;;;;7.60;3.70;;;15.70;99.90;;;;;;4895382;29;20293;-74
2022/04/13 10:52:12;;;;;;;6.73;3.87;;;15.80;99.90;;;;;;4893898;29;20202;-71
2022/04/13 10:54:41;;;;;;;5.33;3.60;;;15.80;99.90;;;;;;4893554;29;20203;-71
2022/04/13 10:57:10;;;;;;;7.60;3.97;;;16.00;99.90;;;;;;4892381;29;20575;-75
2022/04/13 10:59:44;;;;;;;10.53;3.63;;;16.10;99.90;;;;;;4895208;29;20325;-71
2022/04/13 11:02:24;;;;;;;10.07;3.90;;;16.10;99.90;;;;;;4896334;29;20203;-73
2022/04/13 11:04:52;;;;;;;7.57;3.93;;;16.10;99.90;;;;;;4896712;29;20566;-71
2022/04/13 11:07:23;;;;;;;5.87;3.20;;;16.00;99.90;;;;;;4897873;29;20304;-71
2022/04/13 11:09:55;;;;;;;6.33;3.70;;;16.00;99.90;;;;;;4898739;29;20210;-70
2022/04/13 11:12:22;;;;;;;6.87;3.70;;;16.10;99.90;;;;;;4861237;29;1108881;-70
2022/04/13 11:14:52;;;;;;;5.57;3.60;;;16.30;99.90;;;;;;4900100;29;20221;-70
2022/04/13 11:17:26;;;;;;;7.57;3.63;;;16.40;99.90;;;;;;4899859;29;20210;-69
2022/04/13 11:20:20;;;;;;;6.97;3.57;;;16.30;99.90;;;;;;4899835;29;20748;-71
2022/04/13 11:23:07;;;;;;;6.47;3.50;;;16.30;99.90;;;;;;4895687;29;20301;-70
2022/04/13 11:25:45;;;;;;;9.80;3.23;;;16.40;99.90;;;;;;4900045;29;20214;-69
2022/04/13 11:28:22;;;;;;;8.03;3.73;;;16.40;99.90;;;;;;4899512;29;20636;-69
2022/04/13 11:31:06;;;;;;;5.57;3.40;;;16.30;99.90;;;;;;4895955;29;20198;-70
2022/04/13 11:33:48;;;;;;;8.37;3.57;;;16.40;99.90;;;;;;4888458;29;20214;-70
2022/04/13 11:36:15;;;;;;;6.93;3.60;;;16.60;99.90;;;;;;4898740;29;20202;-70
2022/04/13 11:38:49;;;;;;;6.17;2.90;;;16.60;99.90;;;;;;4898319;29;20321;-70
2022/04/13 11:41:16;;;;;;;9.67;3.60;;;16.70;99.90;;;;;;4897809;29;20214;-72
2022/04/13 11:43:43;;;;;;;4.93;2.93;;;16.80;99.90;;;;;;4894356;29;21058;-71
2022/04/13 11:46:34;;;;;;;8.63;2.90;;;17.00;99.90;;;;;;4898412;29;20297;-81
2022/04/13 11:49:01;;;;;;;6.23;3.37;;;17.10;99.90;;;;;;4887951;29;20222;-70
2022/04/13 11:51:30;;;;;;;7.57;2.80;;;17.40;99.90;;;;;;4899384;29;20214;-74
2022/04/13 11:54:06;;;;;;;7.47;3.47;;;17.70;99.90;;;;;;4899111;29;20555;-73
2022/04/13 11:56:35;;;;;;;6.37;2.73;;;17.80;99.90;;;;;;4899114;29;20203;-75
2022/04/13 11:59:02;;;;;;;3.63;2.53;;;17.60;99.90;;;;;;4898887;29;20237;-70
2022/04/13 12:01:29;;;;;;;5.57;2.33;;;17.40;99.90;;;;;;4898602;29;20216;-70
2022/04/13 12:03:58;;;;;;;8.30;3.03;;;17.50;99.90;;;;;;4898868;29;20234;-76
2022/04/13 12:06:26;;;;;;;6.80;2.00;;;17.70;99.90;;;;;;4898527;29;20214;-81
2022/04/13 12:08:55;;;;;;;2.93;1.97;;;17.70;99.90;;;;;;4898971;29;20226;-75
2022/04/13 12:11:24;;;;;;;4.47;2.60;;;17.60;99.90;;;;;;4898638;29;20608;-70
2022/04/13 12:13:53;;;;;;;3.43;2.20;;;17.40;99.90;;;;;;4897981;29;20214;-79
2022/04/13 12:16:22;;;;;;;5.43;2.07;;;17.30;99.90;;;;;;4898546;29;20264;-82
2022/04/13 12:18:50;;;;;;;4.20;2.33;;;17.30;99.90;;;;;;4898367;29;20314;-76
2022/04/13 12:21:21;;;;;;;6.10;2.20;;;16.80;99.90;;;;;;4897376;29;20571;-71
2022/04/13 12:23:49;;;;;;;3.63;1.60;;;16.40;99.90;;;;;;4896042;29;20550;-75
2022/04/13 12:26:17;;;;;;;4.73;1.70;;;16.20;99.90;;;;;;4896808;29;20207;-70
2022/04/13 12:28:45;;;;;;;3.63;1.70;;;15.90;99.90;;;;;;4897653;29;20714;-69
2022/04/13 12:31:13;;;;;;;2.80;1.60;;;15.80;99.90;;;;;;4898527;29;20303;-77
2022/04/13 12:33:41;;;;;;;3.07;1.63;;;15.70;99.90;;;;;;4898423;29;20297;-70
2022/04/13 12:36:08;;;;;;;5.10;1.80;;;15.80;99.90;;;;;;4898665;29;20202;-81
2022/04/13 12:38:36;;;;;;;4.00;2.00;;;15.90;99.90;;;;;;4898277;29;20729;-70
2022/04/13 12:41:08;;;;;;;2.10;1.50;;;16.00;99.90;;;;;;4898413;29;20733;-70
2022/04/13 12:43:37;;;;;;;3.67;1.73;;;16.30;99.90;;;;;;4898917;29;20216;-79
2022/04/13 12:46:16;;;;;;;7.33;2.30;;;16.20;99.90;;;;;;4898098;29;20713;-79
2022/04/13 12:48:45;;;;;;;4.63;2.70;;;16.20;99.90;;;;;;4897983;29;20237;-71
2022/04/13 12:51:13;;;;;;;3.83;2.67;;;16.20;99.90;;;;;;4896104;29;20228;-75
2022/04/13 12:53:58;;;;;;;5.33;2.50;;;16.40;99.90;;;;;;4898350;29;20206;-70
2022/04/13 12:56:27;;;;;;;9.47;3.33;;;16.60;99.90;;;;;;4879825;29;20254;-70
2022/04/13 12:58:55;;;;;;;3.97;2.57;;;16.60;99.90;;;;;;4885500;29;20229;-71
2022/04/13 13:01:28;;;;;;;6.77;2.93;;;16.80;99.90;;;;;;4897382;29;20298;-80
2022/04/13 13:03:56;;;;;;;5.03;3.00;;;17.10;99.90;;;;;;4898587;29;20210;-70
2022/04/13 13:06:29;;;;;;;6.13;2.93;;;17.10;99.90;;;;;;4898731;29;20210;-70
2022/04/13 13:08:58;;;;;;;4.47;2.90;;;17.00;99.90;;;;;;4898534;29;20230;-81
2022/04/13 13:11:28;;;;;;;4.90;2.83;;;17.20;99.90;;;;;;4888581;29;20258;-77
2022/04/13 13:14:05;;;;;;;5.20;2.60;;;17.30;99.90;;;;;;4879686;29;20210;-80
2022/04/13 13:16:38;;;;;;;7.27;3.00;;;17.40;99.90;;;;;;4879601;29;20668;-68
2022/04/13 13:19:16;;;;;;;4.97;2.77;;;17.40;99.90;;;;;;4884287;29;20238;-69
2022/04/13 13:22:12;;;;;;;5.77;2.93;;;17.30;99.90;;;;;;4897119;29;20206;-81
2022/04/13 13:24:56;;;;;;;5.20;2.83;;;17.10;99.90;;;;;;4895318;29;20211;-71
2022/04/13 13:27:25;;;;;;;4.77;2.50;;;17.40;99.90;;;;;;4896299;29;20222;-71
2022/04/13 13:29:52;;;;;;;4.67;2.90;;;17.50;99.90;;;;;;4896944;29;20218;-69
2022/04/13 13:32:22;;;;;;;8.20;3.20;;;17.50;99.90;;;;;;4894303;29;20203;-70
2022/04/13 13:34:50;;;;;;;6.60;2.87;;;17.70;99.90;;;;;;4893367;29;20289;-70
2022/04/13 13:37:31;;;;;;;4.70;2.50;;;17.90;99.90;;;;;;4897543;29;20301;-69
2022/04/13 13:39:57;;;;;;;8.00;2.90;;;17.90;99.90;;;;;;4884432;29;20703;-68
2022/04/13 13:42:24;;;;;;;3.53;2.57;;;17.90;99.90;;;;;;4897546;29;20238;-71
2022/04/13 13:44:51;;;;;;;5.60;2.70;;;17.70;99.90;;;;;;4897136;29;20207;-71
2022/04/13 13:47:19;;;;;;;5.80;3.07;;;17.60;99.90;;;;;;4897154;29;20206;-70
2022/04/13 13:49:46;;;;;;;4.03;2.37;;;17.50;99.90;;;;;;4891270;29;20213;-71
2022/04/13 13:52:13;;;;;;;4.53;2.40;;;17.50;99.90;;;;;;4897646;29;20294;-71
2022/04/13 13:54:40;;;;;;;5.90;2.67;;;17.40;99.90;;;;;;4897647;29;20563;-69
2022/04/13 13:57:07;;;;;;;5.70;2.37;;;17.50;99.90;;;;;;4896854;29;20316;-69
2022/04/13 13:59:33;;;;;;;6.07;2.63;;;17.40;99.90;;;;;;4896590;29;20328;-69
2022/04/13 14:02:02;;;;;;;5.53;2.80;;;17.10;99.90;;;;;;4896889;29;20213;-69
2022/04/13 14:04:30;;;;;;;7.00;2.83;;;17.10;99.90;;;;;;4885850;29;20203;-71
2022/04/13 14:06:57;;;;;;;5.53;3.23;;;17.10;99.90;;;;;;4897111;29;20689;-70
2022/04/13 14:09:25;;;;;;;6.80;2.97;;;17.20;99.90;;;;;;4892752;29;20222;-69
2022/04/13 14:11:52;;;;;;;4.83;2.57;;;17.20;99.90;;;;;;4895025;29;20222;-68
2022/04/13 14:14:19;;;;;;;4.67;2.97;;;17.20;99.90;;;;;;4895885;29;20274;-69
2022/04/13 14:16:46;;;;;;;5.87;3.17;;;17.00;99.90;;;;;;4896349;29;20371;-78
2022/04/13 14:19:13;;;;;;;5.87;3.23;;;17.10;99.90;;;;;;4896814;29;20282;-69
2022/04/13 14:21:42;;;;;;;6.67;3.20;;;17.20;99.90;;;;;;4897167;29;20237;-69
2022/04/13 14:24:10;;;;;;;5.83;2.93;;;17.20;99.90;;;;;;4897652;29;20216;-81
2022/04/13 14:26:37;;;;;;;5.03;2.93;;;17.10;99.90;;;;;;4897797;29;20297;-79
2022/04/13 14:29:06;;;;;;;4.67;2.97;;;16.80;99.90;;;;;;4897172;29;20230;-69
2022/04/13 14:31:33;;;;;;;4.03;2.80;;;16.80;99.90;;;;;;4897336;29;20230;-69
2022/04/13 14:34:02;;;;;;;4.77;3.03;;;16.70;99.90;;;;;;4897572;29;20214;-69
2022/04/13 14:36:29;;;;;;;7.07;3.27;;;16.80;99.90;;;;;;4895246;29;20218;-72
2022/04/13 14:38:58;;;;;;;5.57;2.90;;;16.80;99.90;;;;;;4878547;29;20227;-73
2022/04/13 14:41:24;;;;;;;5.10;2.80;;;16.80;99.90;;;;;;4878577;29;20294;-69
2022/04/13 14:43:52;;;;;;;6.90;2.70;;;16.70;99.90;;;;;;4878658;29;20676;-69
2022/04/13 14:46:19;;;;;;;5.80;2.83;;;16.70;99.90;;;;;;4878640;29;20568;-71
2022/04/13 14:48:47;;;;;;;7.13;3.07;;;17.00;99.90;;;;;;4878612;29;20708;-69
2022/04/13 14:51:14;;;;;;;4.97;3.40;;;17.10;99.90;;;;;;4891306;29;20203;-72
2022/04/13 14:53:41;;;;;;;5.50;2.70;;;17.20;99.90;;;;;;4896845;29;20630;-70
2022/04/13 14:56:09;;;;;;;7.33;3.20;;;17.00;99.90;;;;;;4897214;29;20207;-79
2022/04/13 14:58:36;;;;;;;4.40;2.80;;;17.20;99.90;;;;;;4897379;29;20321;-69
2022/04/13 15:01:03;;;;;;;3.93;2.50;;;17.20;99.90;;;;;;4887774;29;20234;-70
2022/04/13 15:03:30;;;;;;;7.77;3.00;;;17.30;99.90;;;;;;4881384;29;20298;-70
2022/04/13 15:05:57;;;;;;;5.73;2.90;;;17.10;99.90;;;;;;4880683;29;20215;-69
2022/04/13 15:08:24;;;;;;;5.73;3.17;;;17.00;99.90;;;;;;4897203;29;20592;-69
2022/04/13 15:10:51;;;;;;;6.43;3.23;;;16.90;99.90;;;;;;4896304;29;20210;-73
2022/04/13 15:13:20;;;;;;;7.27;3.30;;;16.90;99.90;;;;;;4896843;29;20301;-75
2022/04/13 15:15:46;;;;;;;5.47;3.23;;;16.80;99.90;;;;;;4897208;29;20246;-78
2022/04/13 15:18:13;;;;;;;7.17;3.47;;;16.80;99.90;;;;;;4897070;29;20234;-69
2022/04/13 15:20:40;;;;;;;5.90;3.40;;;17.00;99.90;;;;;;4896988;29;20242;-75
2022/04/13 15:23:07;;;;;;;6.60;3.77;;;17.10;99.90;;;;;;4899828;29;20294;-69
2022/04/13 15:25:34;;;;;;;8.23;3.90;;;17.00;99.90;;;;;;4899379;29;20198;-69
2022/04/13 15:28:01;;;;;;;4.87;3.30;;;16.80;99.90;;;;;;4899224;29;20310;-70
2022/04/13 15:30:29;;;;;;;8.77;3.77;;;16.60;99.90;;;;;;4898544;29;20297;-78
2022/04/13 15:32:56;;;;;;;6.63;3.70;;;16.70;99.90;;;;;;4899170;29;20241;-78
2022/04/13 15:35:22;;;;;;;8.97;3.97;;;16.60;99.90;;;;;;4897749;29;20207;-69
2022/04/13 15:37:49;;;;;;;7.00;3.90;;;16.60;99.90;;;;;;4899431;29;20227;-69
2022/04/13 15:40:16;;;;;;;8.10;3.90;;;16.50;99.90;;;;;;4899800;29;20234;-71
2022/04/13 15:42:43;;;;;;;8.43;4.53;;;16.80;99.90;;;;;;4900066;29;20224;-70
2022/04/13 15:45:10;;;;;;;7.07;4.37;;;16.90;99.90;;;;;;4899773;29;20221;-69
2022/04/13 15:47:39;;;;;;;8.43;4.30;;;17.10;99.90;;;;;;4900294;29;20307;-73
2022/04/13 15:50:08;;;;;;;7.63;4.13;;;17.10;99.90;;;;;;4899765;29;20301;-70
2022/04/13 15:52:35;;;;;;;10.37;4.30;;;17.10;99.90;;;;;;4896923;29;20211;-70
2022/04/13 15:55:03;;;;;;;8.57;4.60;;;17.00;99.90;;;;;;4881107;29;20617;-70
2022/04/13 15:57:30;;;;;;;8.87;4.70;;;16.90;99.90;;;;;;4880836;29;20600;-71
2022/04/13 15:59:56;;;;;;;12.90;5.60;;;16.70;99.90;;;;;;4888247;29;20310;-76
2022/04/13 16:02:25;;;;;;;9.20;4.80;;;16.60;99.90;;;;;;4896898;29;20210;-70
2022/04/13 16:04:53;;;;;;;10.13;4.87;;;16.70;99.90;;;;;;4880466;29;20211;-70
2022/04/13 16:07:20;;;;;;;7.73;4.53;;;16.60;99.90;;;;;;4881175;29;20275;-70
2022/04/13 16:09:47;;;;;;;8.63;4.80;;;16.50;99.90;;;;;;4897611;29;20206;-76
2022/04/13 16:12:14;;;;;;;10.03;4.77;;;16.50;99.90;;;;;;4896331;29;20224;-70
2022/04/13 16:14:41;;;;;;;10.90;5.23;;;16.50;99.90;;;;;;4894149;29;20207;-70
2022/04/13 16:17:09;;;;;;;9.07;4.70;;;16.40;99.90;;;;;;4896341;29;20206;-70
2022/04/13 16:19:35;;;;;;;10.10;4.57;;;16.50;99.90;;;;;;4898830;29;20207;-72
2022/04/13 16:22:04;;;;;;;10.53;4.50;;;16.50;99.90;;;;;;4897302;29;20240;-73
2022/04/13 16:24:31;;;;;;;8.33;4.33;;;16.70;99.90;;;;;;4895929;29;20260;-70
2022/04/13 16:26:58;;;;;;;8.63;4.27;;;16.70;99.90;;;;;;4895213;29;20203;-71
2022/04/13 16:29:25;;;;;;;11.00;4.87;;;16.60;99.90;;;;;;4897984;29;20341;-69
2022/04/13 16:31:51;;;;;;;9.30;4.40;;;16.50;99.90;;;;;;4891418;29;20668;-69
2022/04/13 16:34:18;;;;;;;9.37;4.50;;;16.50;99.90;;;;;;4897990;29;20289;-70
2022/04/13 16:36:45;;;;;;;6.40;3.57;;;16.60;99.90;;;;;;4898259;29;20261;-77
2022/04/13 16:39:13;;;;;;;7.10;3.53;;;16.80;99.90;;;;;;4896001;29;20218;-82
2022/04/13 16:41:40;;;;;;;6.17;3.73;;;16.90;99.90;;;;;;4895951;29;20238;-70
2022/04/13 16:44:07;;;;;;;8.30;4.23;;;16.70;99.90;;;;;;4896637;29;20229;-70
2022/04/13 16:46:35;;;;;;;7.57;4.10;;;16.60;99.90;;;;;;4898093;29;20218;-70
2022/04/13 16:49:02;;;;;;;7.10;3.83;;;16.50;99.90;;;;;;4897616;29;20245;-71
2022/04/13 16:51:28;;;;;;;6.73;4.10;;;16.50;99.90;;;;;;4898490;29;20210;-78
2022/04/13 16:53:56;;;;;;;9.67;4.37;;;16.50;99.90;;;;;;4897617;29;20207;-81
2022/04/13 16:56:24;;;;;;;8.40;4.47;;;16.40;99.90;;;;;;4895649;29;20219;-70
2022/04/13 16:58:51;;;;;;;7.70;4.00;;;16.50;99.90;;;;;;4897016;29;20250;-81
2022/04/13 17:01:18;;;;;;;7.57;4.10;;;16.60;99.90;;;;;;4894327;29;21032;-82
2022/04/13 17:03:45;;;;;;;8.27;3.93;;;16.60;99.90;;;;;;4892871;29;20207;-70
2022/04/13 17:06:12;;;;;;;8.73;4.47;;;16.50;99.90;;;;;;4896181;29;20682;-79
2022/04/13 17:08:39;;;;;;;8.73;4.60;;;16.40;99.90;;;;;;4897627;29;20725;-80
2022/04/13 17:11:07;;;;;;;9.83;4.87;;;16.50;99.90;;;;;;4897427;29;20222;-70
2022/04/13 17:13:35;;;;;;;9.30;4.23;;;16.40;99.90;;;;;;4898314;29;20243;-71
2022/04/13 17:16:03;;;;;;;9.17;4.37;;;16.30;99.90;;;;;;4897316;29;20210;-77
2022/04/13 17:18:30;;;;;;;8.23;4.07;;;16.30;99.90;;;;;;4897734;29;20223;-77
2022/04/13 17:20:57;;;;;;;6.00;3.50;;;16.10;99.90;;;;;;4896613;29;20333;-70
2022/04/13 17:23:24;;;;;;;7.63;3.97;;;16.10;99.90;;;;;;4879344;29;20649;-71
2022/04/13 17:25:51;;;;;;;6.10;3.80;;;16.20;99.90;;;;;;4878825;29;20859;-70
2022/04/13 17:28:18;;;;;;;8.53;3.97;;;16.20;99.90;;;;;;4884720;29;20222;-70
2022/04/13 17:30:46;;;;;;;8.67;4.30;;;16.30;99.90;;;;;;4897371;29;20212;-75
2022/04/13 17:33:13;;;;;;;7.57;4.20;;;16.30;99.90;;;;;;4897623;29;20897;-70
2022/04/13 17:35:40;;;;;;;7.40;4.07;;;16.10;99.90;;;;;;4897979;29;20559;-70
2022/04/13 17:38:09;;;;;;;6.57;4.03;;;15.90;99.90;;;;;;4897363;29;20225;-79
2022/04/13 17:40:36;;;;;;;10.33;4.43;;;15.90;99.90;;;;;;4897402;29;20210;-77
2022/04/13 17:43:03;;;;;;;8.77;3.90;;;15.90;99.90;;;;;;4897309;29;20216;-70
2022/04/13 17:45:30;;;;;;;7.27;3.67;;;15.80;99.90;;;;;;4896365;29;20206;-72
2022/04/13 17:47:58;;;;;;;7.20;3.90;;;15.70;99.90;;;;;;4897241;29;20233;-70
2022/04/13 17:50:25;;;;;;;8.33;4.43;;;15.80;99.90;;;;;;4897662;29;20690;-70
2022/04/13 17:52:52;;;;;;;8.13;4.40;;;15.80;99.90;;;;;;4893550;29;20204;-71
2022/04/13 17:55:19;;;;;;;7.37;3.93;;;15.80;99.90;;;;;;4884185;29;20203;-70
2022/04/13 17:57:46;;;;;;;7.13;4.20;;;15.70;99.90;;;;;;4897036;29;20236;-70
2022/04/13 18:00:14;;;;;;;9.90;4.83;;;15.80;99.90;;;;;;4896060;29;20298;-70
2022/04/13 18:02:41;;;;;;;8.93;4.20;;;15.80;99.90;;;;;;4893926;29;20238;-71
2022/04/13 18:05:10;;;;;;;7.47;4.00;;;15.80;99.90;;;;;;4896461;29;20293;-80
2022/04/13 18:07:37;;;;;;;7.00;4.00;;;15.70;99.90;;;;;;4896971;29;20294;-80
2022/04/13 18:10:04;;;;;;;7.00;4.07;;;15.70;99.90;;;;;;4896678;29;20293;-79
2022/04/13 18:12:31;;;;;;;8.50;3.87;;;15.70;99.90;;;;;;4897056;29;20222;-75
2022/04/13 18:14:58;;;;;;;6.13;3.83;;;15.70;99.90;;;;;;4897113;29;20289;-79
2022/04/13 18:17:25;;;;;;;6.03;4.03;;;15.60;99.90;;;;;;4897469;29;20221;-70
2022/04/13 18:19:52;;;;;;;9.90;4.47;;;15.60;99.90;;;;;;4895606;29;20207;-70
2022/04/13 18:22:22;;;;;;;8.47;4.30;;;15.60;99.90;;;;;;4894914;29;20237;-77
2022/04/13 18:24:49;;;;;;;7.60;4.40;;;15.50;99.90;;;;;;4897607;29;20214;-73
2022/04/13 18:27:17;;;;;;;7.57;3.70;;;15.50;99.90;;;;;;4896759;29;20216;-70
2022/04/13 18:29:44;;;;;;;8.13;4.73;;;15.60;99.90;;;;;;4896925;29;20214;-80
2022/04/13 18:32:11;;;;;;;8.67;4.23;;;15.60;99.90;;;;;;4896833;29;20211;-79
2022/04/13 18:34:37;;;;;;;7.80;4.27;;;15.50;99.90;;;;;;4897332;29;20286;-70
2022/04/13 18:37:05;;;;;;;6.30;4.00;;;15.40;99.90;;;;;;4896780;29;20311;-77
2022/04/13 18:39:33;;;;;;;9.60;5.10;;;15.30;99.90;;;;;;4897581;29;20745;-70
2022/04/13 18:42:00;;;;;;;9.23;4.27;;;15.30;99.90;;;;;;4897478;29;20233;-70
2022/04/13 18:44:27;;;;;;;7.73;4.67;;;15.30;99.90;;;;;;4896717;29;20214;-72
2022/04/13 18:46:55;;;;;;;8.90;4.77;;;15.20;99.90;;;;;;4892361;29;20203;-70
2022/04/13 18:49:22;;;;;;;6.80;4.33;;;15.10;99.90;;;;;;4892212;29;20227;-79
2022/04/13 18:51:49;;;;;;;8.20;4.27;;;14.90;99.90;;;;;;4895490;29;20258;-70
2022/04/13 18:54:15;;;;;;;8.07;4.77;;;14.90;99.90;;;;;;4895246;29;20207;-80
2022/04/13 18:56:44;;;;;;;8.03;4.40;;;14.90;99.90;;;;;;4897424;29;20204;-76
2022/04/13 18:59:11;;;;;;;7.27;4.23;;;14.90;99.90;;;;;;4898166;29;20591;-77
2022/04/13 19:01:38;;;;;;;7.13;4.07;;;14.90;99.90;;;;;;4898078;29;20230;-75
2022/04/13 19:04:05;;;;;;;7.30;3.97;;;14.90;99.90;;;;;;4894388;29;20221;-70
2022/04/13 19:06:32;;;;;;;7.83;4.17;;;14.70;99.90;;;;;;4893506;29;20210;-80
2022/04/13 19:09:00;;;;;;;6.87;4.30;;;14.70;99.90;;;;;;4895138;29;20787;-74
2022/04/13 19:11:27;;;;;;;6.83;4.13;;;14.60;99.90;;;;;;4897526;29;20691;-70
2022/04/13 19:13:56;;;;;;;6.23;3.90;;;14.40;99.90;;;;;;4896853;29;20671;-73
2022/04/13 19:16:23;;;;;;;6.83;4.27;;;14.30;99.90;;;;;;4899452;29;20213;-70
2022/04/13 19:18:50;;;;;;;7.83;4.10;;;14.40;99.90;;;;;;4898471;29;20233;-70
2022/04/13 19:21:17;;;;;;;9.73;4.67;;;14.30;99.90;;;;;;4899382;29;20234;-73
2022/04/13 19:23:43;;;;;;;9.23;4.27;;;14.20;99.90;;;;;;4896416;29;20233;-72
2022/04/13 19:26:10;;;;;;;6.67;4.20;;;14.20;99.90;;;;;;4888764;29;20215;-77
2022/04/13 19:28:37;;;;;;;8.23;4.50;;;14.10;99.90;;;;;;4899212;29;20314;-70
2022/04/13 19:31:06;;;;;;;7.70;4.50;;;14.10;99.90;;;;;;4899213;29;20228;-74
2022/04/13 19:33:33;;;;;;;7.40;3.93;;;14.10;99.90;;;;;;4899425;29;20206;-81
2022/04/13 19:35:59;;;;;;;6.97;4.53;;;14.00;99.90;;;;;;4898888;29;20668;-69
2022/04/13 19:38:26;;;;;;;7.30;4.73;;;14.00;99.90;;;;;;4899239;29;20730;-70
2022/04/13 19:40:53;;;;;;;6.93;4.50;;;14.00;99.90;;;;;;4898898;29;20209;-70
2022/04/13 19:43:20;;;;;;;6.80;4.13;;;13.90;99.90;;;;;;4890035;29;20238;-69
2022/04/13 19:45:47;;;;;;;7.77;4.80;;;13.90;99.90;;;;;;4896833;29;20209;-81
2022/04/13 19:48:15;;;;;;;8.40;4.90;;;13.90;99.90;;;;;;4898564;29;20712;-77
2022/04/13 19:50:42;;;;;;;6.83;4.27;;;13.90;99.90;;;;;;4897659;29;20226;-70
2022/04/13 19:53:09;;;;;;;6.63;4.20;;;13.80;99.90;;;;;;4899014;29;20262;-70
2022/04/13 19:55:36;;;;;;;8.20;5.43;;;13.80;99.90;;;;;;4898491;29;20203;-70
2022/04/13 19:58:04;;;;;;;7.73;4.27;;;13.80;99.90;;;;;;4896364;29;20260;-77
2022/04/13 20:00:31;;;;;;;8.20;4.57;;;13.90;99.90;;;;;;4896462;29;20206;-79
2022/04/13 20:02:58;;;;;;;8.73;4.67;;;13.80;99.90;;;;;;4897061;29;20635;-79
2022/04/13 20:05:26;;;;;;;7.07;4.60;;;13.80;99.90;;;;;;4896576;29;20297;-77
2022/04/13 20:07:54;;;;;;;10.03;4.30;;;13.70;99.90;;;;;;4896651;29;20226;-79
2022/04/13 20:10:21;;;;;;;7.73;4.87;;;13.60;99.90;;;;;;4898533;29;20218;-71
2022/04/13 20:12:48;;;;;;;6.70;4.40;;;13.50;99.90;;;;;;4883088;29;20541;-79
2022/04/13 20:15:15;;;;;;;7.77;5.17;;;13.50;99.90;;;;;;4898686;29;20669;-81
2022/04/13 20:17:42;;;;;;;8.63;5.30;;;13.50;99.90;;;;;;4898827;29;20237;-81
2022/04/13 20:20:11;;;;;;;10.07;4.77;;;13.50;99.90;;;;;;4897225;29;20571;-81
2022/04/13 20:22:40;;;;;;;7.23;4.47;;;13.50;99.90;;;;;;4899105;29;20238;-81
2022/04/13 20:25:08;;;;;;;10.67;4.37;;;13.50;99.90;;;;;;4899134;29;20218;-80
2022/04/13 20:27:41;;;;;;;7.27;4.50;;;13.40;99.90;;;;;;4899061;29;20234;-81
2022/04/13 20:30:10;;;;;;;8.63;4.57;;;13.30;99.90;;;;;;4899106;29;20214;-81
2022/04/13 20:32:36;;;;;;;9.30;5.07;;;13.30;99.90;;;;;;4899291;29;20210;-79
2022/04/13 20:35:04;;;;;;;9.77;5.63;;;13.40;99.90;;;;;;4890926;29;20294;-81
2022/04/13 20:37:31;;;;;;;8.17;5.00;;;13.40;99.90;;;;;;4880141;29;20231;-78
2022/04/13 20:39:59;;;;;;;8.47;4.80;;;13.40;99.90;;;;;;4880072;29;20211;-81
2022/04/13 20:42:26;;;;;;;9.07;4.47;;;13.40;99.90;;;;;;4882656;29;20250;-81
2022/04/13 20:44:53;;;;;;;8.10;4.77;;;13.40;99.90;;;;;;4880160;29;20307;-81
2022/04/13 20:47:20;;;;;;;10.00;5.70;;;13.30;99.90;;;;;;4880074;29;20210;-81
2022/04/13 20:49:46;;;;;;;11.50;5.43;;;13.30;99.90;;;;;;4880026;29;20603;-80
2022/04/13 20:52:13;;;;;;;10.43;5.57;;;13.20;99.90;;;;;;4880106;29;20302;-82
2022/04/13 20:54:40;;;;;;;8.43;5.37;;;13.10;99.90;;;;;;4879896;29;20211;-77
2022/04/13 20:57:08;;;;;;;8.57;4.97;;;13.10;99.90;;;;;;4879556;29;20564;-78
2022/04/13 20:59:35;;;;;;;9.97;5.53;;;13.20;99.90;;;;;;4880215;29;20242;-80
2022/04/13 21:02:02;;;;;;;10.67;5.70;;;13.20;99.90;;;;;;4880899;29;20231;-81
2022/04/13 21:04:29;;;;;;;8.03;4.80;;;13.10;99.90;;;;;;4892367;29;20214;-75
2022/04/13 21:06:56;;;;;;;7.87;4.80;;;12.90;99.90;;;;;;4896467;29;20241;-77
2022/04/13 21:09:24;;;;;;;8.77;4.87;;;12.90;99.90;;;;;;4897384;29;20309;-80
2022/04/13 21:11:50;;;;;;;7.67;4.77;;;12.80;99.90;;;;;;4897844;29;20313;-82
2022/04/13 21:14:19;;;;;;;14.57;8.13;;;12.80;99.90;;;;;;4897605;29;20279;-80
2022/04/13 21:16:45;;;;;;;9.97;5.57;;;12.80;99.90;;;;;;4897464;29;20223;-71
2022/04/13 21:19:14;;;;;;;6.57;4.50;;;12.80;99.90;;;;;;4895761;29;20258;-80
2022/04/13 21:21:44;;;;;;;8.20;4.87;;;12.80;99.90;;;;;;4894175;29;20258;-70
2022/04/13 21:24:10;;;;;;;8.40;4.90;;;12.70;99.90;;;;;;4897037;29;20325;-78
2022/04/13 21:26:37;;;;;;;7.57;4.50;;;12.60;99.90;;;;;;4896682;29;20413;-77
2022/04/13 21:29:04;;;;;;;8.23;4.87;;;12.60;99.90;;;;;;4896151;29;20218;-81
2022/04/13 21:31:32;;;;;;;8.33;5.10;;;12.50;99.90;;;;;;4892061;29;20213;-78
2022/04/13 21:33:59;;;;;;;6.90;4.83;;;12.60;99.90;;;;;;4893242;29;20206;-73
2022/04/13 21:36:27;;;;;;;7.63;4.87;;;12.60;99.90;;;;;;4893780;29;20309;-70
2022/04/13 21:38:53;;;;;;;7.90;4.73;;;12.60;99.90;;;;;;4895205;29;20683;-80
2022/04/13 21:41:20;;;;;;;7.73;4.50;;;12.60;99.90;;;;;;4896972;29;20206;-71
2022/04/13 21:43:47;;;;;;;8.10;4.93;;;12.50;99.90;;;;;;4896694;29;20242;-72
2022/04/13 21:46:14;;;;;;;8.53;4.80;;;12.40;99.90;;;;;;4889754;29;20638;-80
2022/04/13 21:48:43;;;;;;;6.83;4.97;;;12.50;99.90;;;;;;4889958;29;20232;-71
2022/04/13 21:51:10;;;;;;;8.30;4.47;;;12.50;99.90;;;;;;4881739;29;20231;-74
2022/04/13 21:53:37;;;;;;;7.80;4.83;;;12.40;99.90;;;;;;4897386;29;20214;-77
2022/04/13 21:56:04;;;;;;;9.20;5.37;;;12.30;99.90;;;;;;4897100;29;20610;-81
2022/04/13 21:58:31;;;;;;;9.40;5.07;;;12.20;99.90;;;;;;4897227;29;20577;-76
2022/04/13 22:00:58;;;;;;;10.03;4.93;;;12.20;99.90;;;;;;4897545;29;20214;-73
2022/04/13 22:03:25;;;;;;;7.30;4.87;;;12.30;99.90;;;;;;4897305;29;20332;-81